sensor_id;sensor_type;location;lat;lon;timestamp;pressure;altitude;pressure_sealevel;temperature;humidity
62524;BME280;53689;56.878;60.672;2022-07-03T00:01:27;97525.94;;;23.67;38.68
62524;BME280;53689;56.878;60.672;2022-07-03T00:03:54;97519.84;;;23.72;38.24
62524;BME280;53689;56.878;60.672;2022-07-03T00:06:22;97525.03;;;23.74;38.79
62524;BME280;53689;56.878;60.672;2022-07-03T00:08:50;97523.50;;;23.78;38.81
62524;BME280;53689;56.878;60.672;2022-07-03T00:11:18;97515.97;;;23.80;38.21
62524;BME280;53689;56.878;60.672;2022-07-03T00:13:45;97518.69;;;23.80;38.15
62524;BME280;53689;56.878;60.672;2022-07-03T00:16:13;97520.94;;;23.83;38.09
62524;BME280;53689;56.878;60.672;2022-07-03T00:18:42;97516.97;;;23.86;38.12
62524;BME280;53689;56.878;60.672;2022-07-03T00:21:11;97516.34;;;23.83;38.58
62524;BME280;53689;56.878;60.672;2022-07-03T00:23:40;97512.34;;;23.86;38.05
62524;BME280;53689;56.878;60.672;2022-07-03T00:26:11;97516.25;;;23.90;38.14
62524;BME280;53689;56.878;60.672;2022-07-03T00:28:40;97517.66;;;23.93;38.00
62524;BME280;53689;56.878;60.672;2022-07-03T00:31:10;97511.91;;;24.01;37.59
62524;BME280;53689;56.878;60.672;2022-07-03T00:33:38;97517.59;;;24.11;38.02
62524;BME280;53689;56.878;60.672;2022-07-03T00:36:07;97518.13;;;24.20;36.79
62524;BME280;53689;56.878;60.672;2022-07-03T00:38:35;97511.16;;;24.72;36.80
62524;BME280;53689;56.878;60.672;2022-07-03T00:41:02;97512.31;;;25.12;35.50
62524;BME280;53689;56.878;60.672;2022-07-03T00:43:30;97501.25;;;25.14;35.29
62524;BME280;53689;56.878;60.672;2022-07-03T00:46:06;97515.41;;;24.92;36.49
62524;BME280;53689;56.878;60.672;2022-07-03T00:48:37;97508.22;;;25.51;35.01
62524;BME280;53689;56.878;60.672;2022-07-03T00:51:07;97506.28;;;25.22;35.51
62524;BME280;53689;56.878;60.672;2022-07-03T00:53:41;97508.56;;;25.54;35.01
62524;BME280;53689;56.878;60.672;2022-07-03T00:56:11;97510.97;;;24.86;35.79
62524;BME280;53689;56.878;60.672;2022-07-03T00:58:40;97516.56;;;24.13;37.47
62524;BME280;53689;56.878;60.672;2022-07-03T01:01:10;97514.47;;;23.84;37.21
62524;BME280;53689;56.878;60.672;2022-07-03T01:03:42;97512.63;;;23.54;38.04
62524;BME280;53689;56.878;60.672;2022-07-03T01:06:14;97515.34;;;23.66;38.01
62524;BME280;53689;56.878;60.672;2022-07-03T01:08:43;97512.50;;;23.91;37.83
62524;BME280;53689;56.878;60.672;2022-07-03T01:11:20;97505.72;;;24.01;37.10
62524;BME280;53689;56.878;60.672;2022-07-03T01:14:00;97500.66;;;24.04;36.89
62524;BME280;53689;56.878;60.672;2022-07-03T01:16:36;97503.16;;;24.06;37.70
62524;BME280;53689;56.878;60.672;2022-07-03T01:19:10;97505.16;;;24.10;37.47
62524;BME280;53689;56.878;60.672;2022-07-03T01:21:55;97504.34;;;24.10;37.18
62524;BME280;53689;56.878;60.672;2022-07-03T01:27:21;97512.34;;;24.17;37.39
62524;BME280;53689;56.878;60.672;2022-07-03T01:30:03;97506.09;;;24.16;38.88
62524;BME280;53689;56.878;60.672;2022-07-03T01:32:36;97504.34;;;24.10;38.20
62524;BME280;53689;56.878;60.672;2022-07-03T01:35:07;97519.25;;;24.13;38.08
62524;BME280;53689;56.878;60.672;2022-07-03T01:37:34;97507.75;;;24.17;37.51
62524;BME280;53689;56.878;60.672;2022-07-03T01:40:03;97511.31;;;24.30;36.66
62524;BME280;53689;56.878;60.672;2022-07-03T01:42:35;97509.19;;;24.32;36.86
62524;BME280;53689;56.878;60.672;2022-07-03T01:45:04;97511.03;;;24.31;37.56
62524;BME280;53689;56.878;60.672;2022-07-03T01:47:34;97510.81;;;24.33;37.53
62524;BME280;53689;56.878;60.672;2022-07-03T01:50:02;97518.09;;;24.32;36.53
62524;BME280;53689;56.878;60.672;2022-07-03T01:52:31;97516.56;;;24.13;37.40
62524;BME280;53689;56.878;60.672;2022-07-03T01:55:14;97508.16;;;23.90;37.63
62524;BME280;53689;56.878;60.672;2022-07-03T01:57:45;97509.06;;;23.84;37.41
62524;BME280;53689;56.878;60.672;2022-07-03T02:00:15;97512.47;;;23.79;37.23
62524;BME280;53689;56.878;60.672;2022-07-03T02:02:48;97505.59;;;23.65;38.12
62524;BME280;53689;56.878;60.672;2022-07-03T02:05:28;97508.13;;;23.78;38.00
62524;BME280;53689;56.878;60.672;2022-07-03T02:08:06;97514.94;;;23.81;37.88
62524;BME280;53689;56.878;60.672;2022-07-03T02:10:39;97515.75;;;23.81;37.68
62524;BME280;53689;56.878;60.672;2022-07-03T02:13:14;97523.50;;;23.78;38.04
62524;BME280;53689;56.878;60.672;2022-07-03T02:15:44;97509.41;;;23.76;37.62
62524;BME280;53689;56.878;60.672;2022-07-03T02:18:26;97522.81;;;23.82;37.60
62524;BME280;53689;56.878;60.672;2022-07-03T02:21:07;97518.22;;;23.83;37.82
62524;BME280;53689;56.878;60.672;2022-07-03T02:23:43;97515.66;;;23.88;37.15
62524;BME280;53689;56.878;60.672;2022-07-03T02:26:17;97517.03;;;23.79;37.58
62524;BME280;53689;56.878;60.672;2022-07-03T02:28:58;97522.59;;;23.84;37.55
62524;BME280;53689;56.878;60.672;2022-07-03T02:31:27;97512.81;;;23.83;37.73
62524;BME280;53689;56.878;60.672;2022-07-03T02:33:57;97512.00;;;23.82;37.70
62524;BME280;53689;56.878;60.672;2022-07-03T02:36:28;97510.56;;;23.80;37.23
62524;BME280;53689;56.878;60.672;2022-07-03T02:38:56;97512.19;;;23.69;37.73
62524;BME280;53689;56.878;60.672;2022-07-03T02:41:27;97511.63;;;23.79;38.01
62524;BME280;53689;56.878;60.672;2022-07-03T02:43:59;97499.16;;;23.78;37.14
62524;BME280;53689;56.878;60.672;2022-07-03T02:46:37;97500.50;;;23.87;37.60
62524;BME280;53689;56.878;60.672;2022-07-03T02:49:14;97497.88;;;23.80;37.92
62524;BME280;53689;56.878;60.672;2022-07-03T02:51:48;97502.47;;;23.80;37.84
62524;BME280;53689;56.878;60.672;2022-07-03T02:54:18;97499.16;;;23.78;37.22
62524;BME280;53689;56.878;60.672;2022-07-03T02:56:54;97489.56;;;23.82;37.22
62524;BME280;53689;56.878;60.672;2022-07-03T02:59:38;97489.94;;;23.86;36.76
62524;BME280;53689;56.878;60.672;2022-07-03T03:02:17;97493.91;;;23.83;37.41
62524;BME280;53689;56.878;60.672;2022-07-03T03:04:51;97492.00;;;23.83;36.74
62524;BME280;53689;56.878;60.672;2022-07-03T03:07:23;97494.81;;;23.77;37.01
62524;BME280;53689;56.878;60.672;2022-07-03T03:09:53;97487.31;;;23.79;36.50
62524;BME280;53689;56.878;60.672;2022-07-03T03:12:27;97492.84;;;23.84;37.10
62524;BME280;53689;56.878;60.672;2022-07-03T03:15:02;97492.63;;;23.86;36.63
62524;BME280;53689;56.878;60.672;2022-07-03T03:17:36;97495.34;;;23.86;36.29
62524;BME280;53689;56.878;60.672;2022-07-03T03:20:07;97489.69;;;23.87;36.58
62524;BME280;53689;56.878;60.672;2022-07-03T03:22:46;97487.56;;;23.77;36.34
62524;BME280;53689;56.878;60.672;2022-07-03T03:25:20;97490.38;;;23.82;37.03
62524;BME280;53689;56.878;60.672;2022-07-03T03:27:47;97484.53;;;23.86;36.22
62524;BME280;53689;56.878;60.672;2022-07-03T03:30:16;97484.75;;;23.84;36.55
62524;BME280;53689;56.878;60.672;2022-07-03T03:32:44;97478.06;;;23.87;36.32
62524;BME280;53689;56.878;60.672;2022-07-03T03:35:12;97469.69;;;23.88;36.35
62524;BME280;53689;56.878;60.672;2022-07-03T03:37:40;97466.53;;;23.91;36.86
62524;BME280;53689;56.878;60.672;2022-07-03T03:40:08;97470.75;;;23.87;36.35
62524;BME280;53689;56.878;60.672;2022-07-03T03:42:36;97471.94;;;23.91;36.53
62524;BME280;53689;56.878;60.672;2022-07-03T03:45:04;97465.50;;;23.92;36.57
62524;BME280;53689;56.878;60.672;2022-07-03T03:47:33;97466.78;;;23.90;36.55
62524;BME280;53689;56.878;60.672;2022-07-03T03:50:02;97469.94;;;23.98;36.49
62524;BME280;53689;56.878;60.672;2022-07-03T03:52:30;97461.84;;;23.98;36.58
62524;BME280;53689;56.878;60.672;2022-07-03T03:54:57;97471.94;;;24.03;36.44
62524;BME280;53689;56.878;60.672;2022-07-03T03:57:25;97469.06;;;24.05;36.55
62524;BME280;53689;56.878;60.672;2022-07-03T03:59:54;97468.44;;;24.03;36.76
62524;BME280;53689;56.878;60.672;2022-07-03T04:02:22;97462.66;;;23.99;36.37
62524;BME280;53689;56.878;60.672;2022-07-03T04:04:51;97460.72;;;24.06;36.83
62524;BME280;53689;56.878;60.672;2022-07-03T04:07:19;97453.41;;;24.07;36.81
62524;BME280;53689;56.878;60.672;2022-07-03T04:09:46;97449.06;;;24.06;36.29
62524;BME280;53689;56.878;60.672;2022-07-03T04:12:14;97449.66;;;24.08;37.15
62524;BME280;53689;56.878;60.672;2022-07-03T04:14:41;97446.16;;;24.19;36.75
62524;BME280;53689;56.878;60.672;2022-07-03T04:17:09;97444.03;;;24.21;36.02
62524;BME280;53689;56.878;60.672;2022-07-03T04:19:36;97439.06;;;24.18;36.74
62524;BME280;53689;56.878;60.672;2022-07-03T04:22:05;97447.09;;;24.13;36.24
62524;BME280;53689;56.878;60.672;2022-07-03T04:24:32;97443.31;;;24.14;36.14
62524;BME280;53689;56.878;60.672;2022-07-03T04:27:00;97444.84;;;24.10;37.02
62524;BME280;53689;56.878;60.672;2022-07-03T04:29:27;97444.25;;;24.08;37.29
62524;BME280;53689;56.878;60.672;2022-07-03T04:31:55;97438.97;;;24.13;36.65
62524;BME280;53689;56.878;60.672;2022-07-03T04:34:22;97443.66;;;24.18;36.04
62524;BME280;53689;56.878;60.672;2022-07-03T04:36:49;97441.19;;;24.16;36.70
62524;BME280;53689;56.878;60.672;2022-07-03T04:39:18;97444.16;;;24.15;36.35
62524;BME280;53689;56.878;60.672;2022-07-03T04:41:46;97441.44;;;24.15;35.78
62524;BME280;53689;56.878;60.672;2022-07-03T04:44:13;97435.78;;;24.16;35.92
62524;BME280;53689;56.878;60.672;2022-07-03T04:46:41;97444.50;;;24.06;36.45
62524;BME280;53689;56.878;60.672;2022-07-03T04:49:08;97439.19;;;24.11;36.50
62524;BME280;53689;56.878;60.672;2022-07-03T04:51:35;97435.31;;;24.07;36.09
62524;BME280;53689;56.878;60.672;2022-07-03T04:54:03;97433.06;;;24.16;36.10
62524;BME280;53689;56.878;60.672;2022-07-03T04:56:32;97435.78;;;24.16;36.04
62524;BME280;53689;56.878;60.672;2022-07-03T04:58:59;97429.56;;;24.16;35.26
62524;BME280;53689;56.878;60.672;2022-07-03T05:01:27;97430.03;;;24.13;35.69
62524;BME280;53689;56.878;60.672;2022-07-03T05:03:54;97431.56;;;24.08;35.96
62524;BME280;53689;56.878;60.672;2022-07-03T05:06:22;97432.28;;;24.16;35.72
62524;BME280;53689;56.878;60.672;2022-07-03T05:08:49;97429.44;;;24.10;35.36
62524;BME280;53689;56.878;60.672;2022-07-03T05:11:16;97423.19;;;24.22;34.97
62524;BME280;53689;56.878;60.672;2022-07-03T05:13:45;97424.63;;;24.24;35.30
62524;BME280;53689;56.878;60.672;2022-07-03T05:16:13;97421.91;;;24.24;35.37
62524;BME280;53689;56.878;60.672;2022-07-03T05:18:40;97414.16;;;24.16;35.67
62524;BME280;53689;56.878;60.672;2022-07-03T05:21:07;97403.22;;;24.11;35.60
62524;BME280;53689;56.878;60.672;2022-07-03T05:23:35;97402.16;;;24.12;34.91
62524;BME280;53689;56.878;60.672;2022-07-03T05:26:02;97411.44;;;24.16;35.13
62524;BME280;53689;56.878;60.672;2022-07-03T05:28:30;97409.34;;;24.06;34.85
62524;BME280;53689;56.878;60.672;2022-07-03T05:30:58;97410.88;;;24.14;34.87
62524;BME280;53689;56.878;60.672;2022-07-03T05:33:26;97409.69;;;24.22;35.16
62524;BME280;53689;56.878;60.672;2022-07-03T05:35:54;97409.09;;;24.20;34.43
62524;BME280;53689;56.878;60.672;2022-07-03T05:38:22;97410.03;;;24.25;34.60
62524;BME280;53689;56.878;60.672;2022-07-03T05:40:49;97399.47;;;24.12;33.93
62524;BME280;53689;56.878;60.672;2022-07-03T05:43:17;97405.94;;;24.11;33.32
62524;BME280;53689;56.878;60.672;2022-07-03T05:45:44;97410.16;;;24.07;34.02
62524;BME280;53689;56.878;60.672;2022-07-03T05:48:13;97406.13;;;23.97;34.95
62524;BME280;53689;56.878;60.672;2022-07-03T05:50:41;97399.91;;;24.09;34.21
62524;BME280;53689;56.878;60.672;2022-07-03T05:53:08;97397.09;;;24.28;33.69
62524;BME280;53689;56.878;60.672;2022-07-03T05:55:35;97394.63;;;24.26;33.68
62524;BME280;53689;56.878;60.672;2022-07-03T05:58:03;97390.66;;;24.29;32.32
62524;BME280;53689;56.878;60.672;2022-07-03T06:00:30;97396.88;;;24.17;33.11
62524;BME280;53689;56.878;60.672;2022-07-03T06:02:58;97390.88;;;24.15;33.05
62524;BME280;53689;56.878;60.672;2022-07-03T06:05:27;97389.59;;;24.06;33.28
62524;BME280;53689;56.878;60.672;2022-07-03T06:07:54;97392.50;;;24.28;32.64
62524;BME280;53689;56.878;60.672;2022-07-03T06:10:21;97389.31;;;24.31;32.71
62524;BME280;53689;56.878;60.672;2022-07-03T06:12:49;97386.88;;;24.30;32.01
62524;BME280;53689;56.878;60.672;2022-07-03T06:15:16;97386.28;;;24.28;32.72
62524;BME280;53689;56.878;60.672;2022-07-03T06:17:44;97388.75;;;24.17;32.46
62524;BME280;53689;56.878;60.672;2022-07-03T06:20:12;97382.88;;;24.20;32.93
62524;BME280;53689;56.878;60.672;2022-07-03T06:22:41;97378.84;;;24.35;32.12
62524;BME280;53689;56.878;60.672;2022-07-03T06:25:09;97370.88;;;24.28;32.07
62524;BME280;53689;56.878;60.672;2022-07-03T06:27:37;97380.28;;;24.25;31.95
62524;BME280;53689;56.878;60.672;2022-07-03T06:30:05;97380.75;;;24.22;31.86
62524;BME280;53689;56.878;60.672;2022-07-03T06:32:33;97375.94;;;24.24;33.10
62524;BME280;53689;56.878;60.672;2022-07-03T06:35:00;97370.19;;;24.21;32.21
62524;BME280;53689;56.878;60.672;2022-07-03T06:37:27;97377.00;;;24.23;31.67
62524;BME280;53689;56.878;60.672;2022-07-03T06:39:56;97369.22;;;24.27;31.66
62524;BME280;53689;56.878;60.672;2022-07-03T06:42:24;97369.13;;;24.10;33.89
62524;BME280;53689;56.878;60.672;2022-07-03T06:44:51;97355.84;;;24.20;34.34
62524;BME280;53689;56.878;60.672;2022-07-03T06:47:19;97358.84;;;24.48;31.64
62524;BME280;53689;56.878;60.672;2022-07-03T06:49:46;97360.09;;;24.81;33.15
62524;BME280;53689;56.878;60.672;2022-07-03T06:52:13;97356.84;;;24.55;33.10
62524;BME280;53689;56.878;60.672;2022-07-03T06:54:41;97358.34;;;24.63;31.44
62524;BME280;53689;56.878;60.672;2022-07-03T06:57:10;97350.94;;;24.58;31.39
62524;BME280;53689;56.878;60.672;2022-07-03T06:59:37;97364.38;;;24.41;31.82
62524;BME280;53689;56.878;60.672;2022-07-03T07:02:05;97357.56;;;24.50;32.04
62524;BME280;53689;56.878;60.672;2022-07-03T07:04:32;97361.19;;;24.44;32.08
62524;BME280;53689;56.878;60.672;2022-07-03T07:06:59;97360.84;;;24.41;31.76
62524;BME280;53689;56.878;60.672;2022-07-03T07:09:27;97367.19;;;24.46;31.80
62524;BME280;53689;56.878;60.672;2022-07-03T07:11:54;97359.22;;;24.39;32.55
62524;BME280;53689;56.878;60.672;2022-07-03T07:14:23;97352.66;;;24.23;32.47
62524;BME280;53689;56.878;60.672;2022-07-03T07:16:51;97358.19;;;24.29;33.53
62524;BME280;53689;56.878;60.672;2022-07-03T07:19:18;97352.16;;;24.27;32.64
62524;BME280;53689;56.878;60.672;2022-07-03T07:21:48;97352.06;;;24.33;33.52
62524;BME280;53689;56.878;60.672;2022-07-03T07:24:16;97354.13;;;24.55;31.98
62524;BME280;53689;56.878;60.672;2022-07-03T07:26:43;97347.31;;;24.52;32.84
62524;BME280;53689;56.878;60.672;2022-07-03T07:29:11;97371.78;;;24.58;31.97
62524;BME280;53689;56.878;60.672;2022-07-03T07:31:40;97369.44;;;24.49;31.76
62524;BME280;53689;56.878;60.672;2022-07-03T07:34:07;97365.59;;;24.33;31.94
62524;BME280;53689;56.878;60.672;2022-07-03T07:36:34;97373.22;;;24.13;32.87
62524;BME280;53689;56.878;60.672;2022-07-03T07:39:02;97362.78;;;24.16;33.10
62524;BME280;53689;56.878;60.672;2022-07-03T07:41:29;97366.31;;;24.17;32.79
62524;BME280;53689;56.878;60.672;2022-07-03T07:43:57;97364.31;;;24.24;32.89
62524;BME280;53689;56.878;60.672;2022-07-03T07:46:24;97356.91;;;24.19;32.84
62524;BME280;53689;56.878;60.672;2022-07-03T07:48:53;97363.13;;;24.32;32.69
62524;BME280;53689;56.878;60.672;2022-07-03T07:51:21;97364.75;;;24.33;33.45
62524;BME280;53689;56.878;60.672;2022-07-03T07:53:48;97351.81;;;24.35;32.86
62524;BME280;53689;56.878;60.672;2022-07-03T07:56:16;97359.84;;;24.30;33.73
62524;BME280;53689;56.878;60.672;2022-07-03T07:58:43;97354.50;;;24.35;33.64
62524;BME280;53689;56.878;60.672;2022-07-03T08:01:10;97355.44;;;24.41;32.87
62524;BME280;53689;56.878;60.672;2022-07-03T08:03:38;97354.75;;;24.74;32.07
62524;BME280;53689;56.878;60.672;2022-07-03T08:06:07;97352.06;;;24.74;32.15
62524;BME280;53689;56.878;60.672;2022-07-03T08:08:34;97352.66;;;24.76;32.26
62524;BME280;53689;56.878;60.672;2022-07-03T08:11:01;97355.72;;;24.80;32.85
62524;BME280;53689;56.878;60.672;2022-07-03T08:13:29;97353.22;;;24.90;32.47
62524;BME280;53689;56.878;60.672;2022-07-03T08:15:56;97349.25;;;24.81;32.25
62524;BME280;53689;56.878;60.672;2022-07-03T08:18:24;97351.91;;;24.93;32.36
62524;BME280;53689;56.878;60.672;2022-07-03T08:20:51;97357.50;;;25.03;32.35
62524;BME280;53689;56.878;60.672;2022-07-03T08:23:20;97352.56;;;25.00;32.80
62524;BME280;53689;56.878;60.672;2022-07-03T08:25:48;97347.34;;;25.11;32.34
62524;BME280;53689;56.878;60.672;2022-07-03T08:28:15;97348.13;;;25.23;32.48
62524;BME280;53689;56.878;60.672;2022-07-03T08:30:42;97343.22;;;25.08;31.90
62524;BME280;53689;56.878;60.672;2022-07-03T08:33:10;97335.94;;;25.08;32.54
62524;BME280;53689;56.878;60.672;2022-07-03T08:35:37;97341.03;;;25.22;32.06
62524;BME280;53689;56.878;60.672;2022-07-03T08:38:05;97347.84;;;25.07;32.05
62524;BME280;53689;56.878;60.672;2022-07-03T08:40:34;97337.75;;;25.03;31.72
62524;BME280;53689;56.878;60.672;2022-07-03T08:43:01;97336.16;;;24.90;32.94
62524;BME280;53689;56.878;60.672;2022-07-03T08:45:30;97339.59;;;25.02;32.23
62524;BME280;53689;56.878;60.672;2022-07-03T08:47:59;97340.72;;;25.18;31.98
62524;BME280;53689;56.878;60.672;2022-07-03T08:50:26;97345.22;;;25.13;31.70
62524;BME280;53689;56.878;60.672;2022-07-03T08:52:53;97349.47;;;25.08;32.09
62524;BME280;53689;56.878;60.672;2022-07-03T08:55:21;97338.03;;;24.89;32.34
62524;BME280;53689;56.878;60.672;2022-07-03T08:57:50;97338.66;;;24.79;32.03
62524;BME280;53689;56.878;60.672;2022-07-03T09:00:18;97349.44;;;24.91;32.84
62524;BME280;53689;56.878;60.672;2022-07-03T09:02:47;97341.75;;;25.00;32.51
62524;BME280;53689;56.878;60.672;2022-07-03T09:05:16;97344.91;;;25.09;32.52
62524;BME280;53689;56.878;60.672;2022-07-03T09:07:45;97349.25;;;25.10;31.91
62524;BME280;53689;56.878;60.672;2022-07-03T09:10:16;97350.84;;;24.94;32.09
62524;BME280;53689;56.878;60.672;2022-07-03T09:12:44;97348.63;;;24.91;32.87
62524;BME280;53689;56.878;60.672;2022-07-03T09:15:13;97348.22;;;24.99;32.37
62524;BME280;53689;56.878;60.672;2022-07-03T09:17:56;97346.88;;;24.85;33.13
62524;BME280;53689;56.878;60.672;2022-07-03T09:20:28;97347.59;;;24.80;32.78
62524;BME280;53689;56.878;60.672;2022-07-03T09:23:08;97345.81;;;24.86;32.63
62524;BME280;53689;56.878;60.672;2022-07-03T09:25:50;97346.28;;;24.83;33.02
62524;BME280;53689;56.878;60.672;2022-07-03T09:28:19;97348.97;;;24.94;32.22
62524;BME280;53689;56.878;60.672;2022-07-03T09:30:58;97335.19;;;24.96;32.90
62524;BME280;53689;56.878;60.672;2022-07-03T09:33:26;97336.00;;;24.97;32.51
62524;BME280;53689;56.878;60.672;2022-07-03T09:35:54;97331.56;;;24.90;32.81
62524;BME280;53689;56.878;60.672;2022-07-03T09:38:22;97327.31;;;25.12;32.66
62524;BME280;53689;56.878;60.672;2022-07-03T09:40:51;97333.19;;;25.20;32.53
62524;BME280;53689;56.878;60.672;2022-07-03T09:43:23;97332.41;;;25.08;32.71
62524;BME280;53689;56.878;60.672;2022-07-03T09:45:53;97324.63;;;25.12;32.50
62524;BME280;53689;56.878;60.672;2022-07-03T09:48:24;97327.91;;;25.14;32.45
62524;BME280;53689;56.878;60.672;2022-07-03T09:51:14;97327.31;;;25.12;32.71
62524;BME280;53689;56.878;60.672;2022-07-03T09:54:00;97347.44;;;25.16;31.98
62524;BME280;53689;56.878;60.672;2022-07-03T09:56:35;97339.75;;;25.42;32.23
62524;BME280;53689;56.878;60.672;2022-07-03T09:59:08;97352.25;;;24.97;33.19
62524;BME280;53689;56.878;60.672;2022-07-03T10:01:37;97348.19;;;24.70;33.39
62524;BME280;53689;56.878;60.672;2022-07-03T10:04:11;97348.69;;;24.67;33.77
62524;BME280;53689;56.878;60.672;2022-07-03T10:06:54;97356.81;;;24.67;33.82
62524;BME280;53689;56.878;60.672;2022-07-03T10:09:23;97346.28;;;24.71;34.67
62524;BME280;53689;56.878;60.672;2022-07-03T10:11:52;97349.25;;;24.69;35.15
62524;BME280;53689;56.878;60.672;2022-07-03T10:14:22;97352.53;;;24.71;35.14
62524;BME280;53689;56.878;60.672;2022-07-03T10:16:50;97347.72;;;24.73;34.98
62524;BME280;53689;56.878;60.672;2022-07-03T10:19:20;97355.97;;;24.78;35.11
62524;BME280;53689;56.878;60.672;2022-07-03T10:21:51;97345.13;;;24.78;35.49
62524;BME280;53689;56.878;60.672;2022-07-03T10:24:21;97348.41;;;24.80;35.11
62524;BME280;53689;56.878;60.672;2022-07-03T10:26:50;97356.97;;;24.89;35.46
62524;BME280;53689;56.878;60.672;2022-07-03T10:29:20;97357.03;;;24.65;35.95
62524;BME280;53689;56.878;60.672;2022-07-03T10:31:54;97355.53;;;24.58;36.59
62524;BME280;53689;56.878;60.672;2022-07-03T10:34:24;97358.06;;;24.76;35.66
62524;BME280;53689;56.878;60.672;2022-07-03T10:36:55;97346.78;;;24.67;35.82
62524;BME280;53689;56.878;60.672;2022-07-03T10:39:33;97351.28;;;24.62;36.11
62524;BME280;53689;56.878;60.672;2022-07-03T10:42:04;97351.13;;;24.69;35.64
62524;BME280;53689;56.878;60.672;2022-07-03T10:44:32;97348.69;;;24.67;35.87
62524;BME280;53689;56.878;60.672;2022-07-03T10:47:00;97356.66;;;24.86;35.95
62524;BME280;53689;56.878;60.672;2022-07-03T10:49:35;97352.97;;;24.92;35.91
62524;BME280;53689;56.878;60.672;2022-07-03T10:52:03;97359.50;;;24.67;36.28
62524;BME280;53689;56.878;60.672;2022-07-03T10:54:33;97366.59;;;24.56;35.81
62524;BME280;53689;56.878;60.672;2022-07-03T10:57:15;97360.47;;;24.61;36.03
62524;BME280;53689;56.878;60.672;2022-07-03T11:00:03;97373.13;;;24.72;36.26
62524;BME280;53689;56.878;60.672;2022-07-03T11:02:33;97365.38;;;24.64;35.97
62524;BME280;53689;56.878;60.672;2022-07-03T11:05:25;97362.59;;;24.59;36.09
62524;BME280;53689;56.878;60.672;2022-07-03T11:08:07;97366.44;;;24.63;35.54
62524;BME280;53689;56.878;60.672;2022-07-03T11:10:36;97371.28;;;24.61;36.24
62524;BME280;53689;56.878;60.672;2022-07-03T11:13:06;97377.03;;;24.64;35.74
62524;BME280;53689;56.878;60.672;2022-07-03T11:15:35;97373.50;;;24.64;36.00
62524;BME280;53689;56.878;60.672;2022-07-03T11:18:09;97375.63;;;24.62;35.79
62524;BME280;53689;56.878;60.672;2022-07-03T11:23:37;97373.41;;;24.59;36.32
62524;BME280;53689;56.878;60.672;2022-07-03T11:26:21;97371.25;;;24.73;36.05
62524;BME280;53689;56.878;60.672;2022-07-03T11:28:53;97375.25;;;24.70;35.64
62524;BME280;53689;56.878;60.672;2022-07-03T11:31:22;97365.94;;;24.90;35.36
62524;BME280;53689;56.878;60.672;2022-07-03T11:33:56;97358.41;;;24.80;35.45
62524;BME280;53689;56.878;60.672;2022-07-03T11:36:27;97366.66;;;24.73;35.40
62524;BME280;53689;56.878;60.672;2022-07-03T11:39:07;97355.63;;;24.63;35.57
62524;BME280;53689;56.878;60.672;2022-07-03T11:41:46;97362.09;;;24.62;35.48
62524;BME280;53689;56.878;60.672;2022-07-03T11:44:18;97364.66;;;24.69;35.58
62524;BME280;53689;56.878;60.672;2022-07-03T11:46:49;97359.97;;;24.64;36.14
62524;BME280;53689;56.878;60.672;2022-07-03T11:49:17;97357.53;;;24.62;35.32
62524;BME280;53689;56.878;60.672;2022-07-03T11:51:58;97359.41;;;24.62;35.79
62524;BME280;53689;56.878;60.672;2022-07-03T11:54:29;97349.50;;;24.79;35.07
62524;BME280;53689;56.878;60.672;2022-07-03T11:56:57;97340.50;;;24.91;35.69
62524;BME280;53689;56.878;60.672;2022-07-03T11:59:25;97351.91;;;24.93;34.92
62524;BME280;53689;56.878;60.672;2022-07-03T12:02:00;97340.88;;;24.83;35.96
62524;BME280;53689;56.878;60.672;2022-07-03T12:04:29;97341.13;;;24.69;36.26
62524;BME280;53689;56.878;60.672;2022-07-03T12:06:59;97333.53;;;24.54;36.26
62524;BME280;53689;56.878;60.672;2022-07-03T12:09:28;97341.88;;;24.52;36.39
62524;BME280;53689;56.878;60.672;2022-07-03T12:11:58;97332.66;;;24.36;36.45
62524;BME280;53689;56.878;60.672;2022-07-03T12:14:40;97326.41;;;24.36;36.87
62524;BME280;53689;56.878;60.672;2022-07-03T12:17:10;97322.31;;;24.33;36.82
62524;BME280;53689;56.878;60.672;2022-07-03T12:19:39;97320.09;;;24.18;36.31
62524;BME280;53689;56.878;60.672;2022-07-03T12:22:13;97311.38;;;24.16;35.85
62524;BME280;53689;56.878;60.672;2022-07-03T12:24:55;97302.91;;;24.24;35.94
62524;BME280;53689;56.878;60.672;2022-07-03T12:27:23;97309.59;;;24.34;35.84
62524;BME280;53689;56.878;60.672;2022-07-03T12:29:51;97305.84;;;24.23;36.34
62524;BME280;53689;56.878;60.672;2022-07-03T12:32:19;97307.53;;;24.12;36.45
62524;BME280;53689;56.878;60.672;2022-07-03T12:34:47;97311.75;;;24.08;36.14
62524;BME280;53689;56.878;60.672;2022-07-03T12:37:17;97296.59;;;24.07;36.23
62524;BME280;53689;56.878;60.672;2022-07-03T12:39:57;97298.84;;;24.10;35.96
62524;BME280;53689;56.878;60.672;2022-07-03T12:42:25;97303.91;;;24.06;35.29
62524;BME280;53689;56.878;60.672;2022-07-03T12:44:56;97300.34;;;24.06;35.19
62524;BME280;53689;56.878;60.672;2022-07-03T12:47:24;97302.81;;;23.95;35.18
62524;BME280;53689;56.878;60.672;2022-07-03T12:49:56;97309.84;;;23.84;35.33
62524;BME280;53689;56.878;60.672;2022-07-03T12:52:25;97304.00;;;23.88;35.48
62524;BME280;53689;56.878;60.672;2022-07-03T12:54:52;97301.03;;;23.89;35.21
62524;BME280;53689;56.878;60.672;2022-07-03T12:57:21;97303.75;;;23.89;35.19
62524;BME280;53689;56.878;60.672;2022-07-03T13:00:01;97309.97;;;24.02;34.99
62524;BME280;53689;56.878;60.672;2022-07-03T13:02:29;97304.31;;;24.03;35.22
62524;BME280;53689;56.878;60.672;2022-07-03T13:04:58;97298.34;;;24.01;34.90
62524;BME280;53689;56.878;60.672;2022-07-03T13:07:29;97297.75;;;23.87;34.81
62524;BME280;53689;56.878;60.672;2022-07-03T13:10:00;97304.69;;;23.95;35.22
62524;BME280;53689;56.878;60.672;2022-07-03T13:12:28;97295.19;;;23.92;34.48